KCIU

Chippewa County International Airport

Sault Ste Marie, Michigan, USA
METAR KCIU 271156Z AUTO 14006KT 5SM BR OVC002 15/14 A2983 RMK AO2 SLP121 6//// 7//// T01500144 10156 20144 51006 PNO $
Observed Flight Rules
May-27 @ 11:56 UTC (6 minutes ago) Instrument Flight Rules
Wind Visibility Clouds Conditions
140° at 6 knots 5 miles
  • Overcast at 200' AGL
  • Mist
Temperatures Readings
Current 15°C / 59°F
Dewpoint 14°C / 57°F
Humidity 94%
Altimeter 29.83" Hg
Pressure 1012.1 hPa
Elevation 244
METAR KCIU 271156Z AUTO 14006KT 5SM BR OVC002 15/14 A2983 RMK AO2 SLP121 6//// 7//// T01500144 10156 20144 51006 PNO $
Observed Flight Rules
May-27 @ 11:56 UTC
(6 minutes ago)
LIFR
Wind Visibility
140° at 6 knots 5 miles
Clouds
  • Overcast at 200' AGL
Conditions
  • Mist
Temperature Dewpoint
15°C / 59°F 14°C / 57°F
Humidity Altimeter Pressure
94% 29.83" Hg 1012.1 hPa